Warning: Javascript must be enabled to use all the features on this page!


Page Loading - Please Wait...

Click to hideNews Bulletins

Peak Streamflow for the Nation

USGS 01327750 HUDSON RIVER AT FORT EDWARD NY

Washington County, New York
Hydrologic Unit Code 02020003
Latitude  43°16'10", Longitude  73°35'45" NAD83
Drainage area 2,810  square miles
Gage datum 99.13 feet above NAVD88
Output formats
Table
Graph
Tab-separated file
peakfq (watstore) format
Reselect output format
Water
Year
Date Gage
Height
(feet)
Stream-
flow
(cfs)
1913 1913-03-28   89,1007
1949 1949-01-01   42,7002,6,7
1977 1977-04-26 27.50 31,0006
1978 1977-10-18 24.962 20,2006
1979 1979-04-29 28.09 34,0006
1980 1980-04-10 25.68 23,3006
1981 1981-02-22 26.68 27,6006
1982 1982-04-19 26.73 27,8006
1983 1983-05-03 28.34 35,2006
1984 1983-12-14 26.67 27,6006
1985 1984-12-31 24.79 19,5006
1986 1986-04-01 25.47 22,4006
1987 1987-04-01 27.22 30,0006
1988 1988-04-05 23.532 12,7006
1989 1989-05-13 24.96 19,3006
1990 1990-05-22 26.762 27,9006
1991 1990-10-24 24.89 18,9006
1992 1992-05-04 25.22 20,5006
1993 1993-04-18 27.53 31,5006
1994 1994-04-17 26.88 28,5006
1995 1995-01-17 23.94 14,6006
1996 1996-05-13 26.75 27,2006
1997 1996-11-10 26.08 24,7006
1998 1998-01-10 28.29 35,0006
1999 1999-04-05 24.40 16,6006
2000 2000-04-23 25.82 23,4006
2001 2001-04-24 26.87 28,5006
2002 2002-04-15 25.69 22,8006
2003 2003-03-30 24.30 16,0006
2004 2004-05-25 24.98 19,4006
2005 2005-04-03 26.47 26,4006
2006 2006-06-29 27.49 31,1006
2007 2006-11-18 26.64 27,2006
2008 2008-04-21 26.43 26,2006
2009 2009-04-04 24.62 17,6006
2010 2010-03-23 25.83 23,5006
2011 2011-04-29 31.34 48,8006
2012 2011-10-20 23.48 12,2006
2013 2013-06-13 25.00 19,5006
2014 2014-04-16 27.96 36,4006
2015 2015-04-22 24.02 16,3006
2016 2016-04-08 23.81 14,6006
2017 2017-05-07 25.05 22,0006
2018 2018-04-27 24.90 21,2006
2019 2019-04-21 26.95 31,0006
2020 2019-11-01 27.96 35,9006
?
  Peak Gage-Height Qualification Codes.
?
  Peak Streamflow Qualification Codes.